Time;durP1;ratioP1;P1;durP2;ratioP2;P2;SDS_P1;SDS_P2;PMS_P1;PMS_P2;Temp;Humidity;BMP_temperature;BMP_pressure;BME280_temperature;BME280_humidity;BME280_pressure;Samples;Min_cycle;Max_cycle;Signal;HPM_P1;HPM_P2
2021/08/13 00:00:23;;;;;;;;;;;;;;;23.71;66.28;97228.38;221931;262;98015;-66
2021/08/13 00:01:25;;;;;;;;;;;;;;;23.76;66.12;97235.09;222683;260;97321;-64
2021/08/13 00:02:26;;;;;;;;;;;;;;;23.79;66.24;97235.20;221608;262;194039;-64
2021/08/13 00:03:28;;;;;;;;;;;;;;;23.83;66.16;97235.35;222817;260;98945;-63
2021/08/13 00:04:29;;;;;;;;;;;;;;;23.93;65.86;97231.56;221259;262;98938;-50
2021/08/13 00:05:30;;;;;;;;;;;;;;;23.77;66.09;97233.37;222083;262;98973;-51
2021/08/13 00:06:31;;;;;;;;;;;;;;;23.52;66.73;97235.81;222561;260;98945;-57
2021/08/13 00:07:33;;;;;;;;;;;;;;;23.37;67.47;97240.02;223074;261;97893;-53
2021/08/13 00:08:34;;;;;;;;;;;;;;;23.38;67.18;97231.95;222807;261;98094;-55
2021/08/13 00:09:35;;;;;;;;;;;;;;;23.54;66.89;97232.94;222441;261;192281;-52
2021/08/13 00:10:37;;;;;;;;;;;;;;;23.60;66.67;97238.50;222241;261;97275;-52
2021/08/13 00:11:38;;;;;;;;;;;;;;;23.75;68.23;97239.83;223362;259;98960;-55
2021/08/13 00:12:40;;;;;;;;;;;;;;;23.48;68.48;97232.91;223897;259;97979;-48
2021/08/13 00:13:41;;;;;;;;;;;;;;;23.37;72.38;97240.02;222676;261;98521;-51
2021/08/13 00:14:42;;;;;;;;;;;;;;;23.44;67.82;97236.70;223337;260;97294;-51
2021/08/13 00:15:43;;;;;;;;;;;;;;;23.54;67.01;97227.41;221961;261;97985;-51
2021/08/13 00:16:45;;;;;;;;;;;;;;;23.54;67.07;97233.52;221329;261;98998;-50
2021/08/13 00:17:46;;;;;;;;;;;;;;;23.59;66.77;97229.97;221884;260;98893;-56
2021/08/13 00:18:48;;;;;;;;;;;;;;;23.62;66.60;97227.92;221952;260;97974;-47
2021/08/13 00:19:49;;;;;;;;;;;;;;;23.42;66.99;97227.95;222535;261;98083;-51
2021/08/13 00:20:50;;;;;;;;;;;;;;;23.48;66.93;97227.37;221238;262;98015;-52
2021/08/13 00:21:52;;;;;;;;;;;;;;;23.54;66.81;97228.78;222132;261;97985;-49
2021/08/13 00:22:53;;;;;;;;;;;;;;;23.33;67.16;97228.02;221845;262;98832;-55
2021/08/13 00:23:54;;;;;;;;;;;;;;;23.41;67.21;97228.52;221875;261;194131;-48
2021/08/13 00:24:56;;;;;;;;;;;;;;;23.62;67.58;97225.73;221388;261;100331;-53
2021/08/13 00:25:57;;;;;;;;;;;;;;;23.67;66.50;97229.66;221973;260;99014;-52
2021/08/13 00:26:58;;;;;;;;;;;;;;;23.41;66.95;97222.98;221495;261;98944;-53
2021/08/13 00:28:00;;;;;;;;;;;;;;;23.44;67.01;97220.92;222416;260;98912;-50
2021/08/13 00:29:01;;;;;;;;;;;;;;;23.44;66.96;97227.02;222259;261;98970;-51
2021/08/13 00:30:02;;;;;;;;;;;;;;;23.36;67.17;97217.66;223289;260;97980;-53
2021/08/13 00:31:04;;;;;;;;;;;;;;;23.34;67.17;97218.58;221657;261;193614;-52
2021/08/13 00:32:05;;;;;;;;;;;;;;;23.41;67.29;97222.98;222944;260;97975;-46
2021/08/13 00:33:06;;;;;;;;;;;;;;;23.43;67.18;97221.27;223494;260;98982;-54
2021/08/13 00:34:08;;;;;;;;;;;;;;;23.55;67.09;97222.68;221548;262;98957;-53
2021/08/13 00:35:09;;;;;;;;;;;;;;;23.64;66.75;97223.43;219985;263;98994;-50
2021/08/13 00:36:10;;;;;;;;;;;;;;;23.64;66.78;97225.62;221267;262;98949;-52
2021/08/13 00:37:12;;;;;;;;;;;;;;;23.66;66.63;97221.93;221579;260;98027;-48
2021/08/13 00:38:13;;;;;;;;;;;;;;;23.57;67.04;97229.48;221816;261;98003;-50
2021/08/13 00:39:15;;;;;;;;;;;;;;;23.66;66.69;97228.84;222065;261;98011;-50
2021/08/13 00:40:16;;;;;;;;;;;;;;;23.46;68.32;97225.53;222061;261;98886;-53
2021/08/13 00:41:17;;;;;;;;;;;;;;;23.56;66.99;97225.09;222760;261;97703;-48
2021/08/13 00:42:19;;;;;;;;;;;;;;;23.44;67.50;97227.02;222535;261;97099;-55
2021/08/13 00:43:20;;;;;;;;;;;;;;;23.15;69.76;97223.22;222292;261;98951;-48
2021/08/13 00:44:21;;;;;;;;;;;;;;;23.40;67.68;97222.76;221837;262;98940;-51
2021/08/13 00:45:23;;;;;;;;;;;;;;;23.47;67.07;97227.14;221746;261;194648;-52
2021/08/13 00:46:24;;;;;;;;;;;;;;;23.35;68.11;97223.77;222074;261;98950;-47
2021/08/13 00:47:25;;;;;;;;;;;;;;;23.51;69.73;97233.63;221891;262;97922;-52
2021/08/13 00:48:27;;;;;;;;;;;;;;;23.61;67.19;97224.92;222121;261;97059;-53
2021/08/13 00:49:28;;;;;;;;;;;;;;;23.38;68.53;97227.80;221859;262;99050;-57
2021/08/13 00:50:29;;;;;;;;;;;;;;;23.54;67.11;97230.17;222504;261;98969;-50
2021/08/13 00:51:31;;;;;;;;;;;;;;;23.52;66.93;97231.09;222272;261;98930;-50
2021/08/13 00:52:32;;;;;;;;;;;;;;;23.65;66.66;97227.81;222414;261;98949;-48
2021/08/13 00:53:33;;;;;;;;;;;;;;;23.56;69.96;97235.36;221783;261;98951;-55
2021/08/13 00:54:35;;;;;;;;;;;;;;;23.43;67.38;97227.60;221340;261;97962;-52
2021/08/13 00:55:36;;;;;;;;;;;;;;;23.50;68.77;97223.72;222683;261;98963;-51
2021/08/13 00:56:37;;;;;;;;;;;;;;;23.58;66.97;97229.73;222202;261;98917;-52
2021/08/13 00:57:39;;;;;;;;;;;;;;;23.48;67.23;97228.75;222123;260;98932;-49
2021/08/13 00:58:40;;;;;;;;;;;;;;;23.50;67.40;97224.26;221465;261;99050;-57
2021/08/13 00:59:41;;;;;;;;;;;;;;;23.54;67.10;97222.45;220167;262;98968;-53
2021/08/13 01:00:43;;;;;;;;;;;;;;;23.55;66.85;97224.87;221197;260;99133;-50
2021/08/13 01:01:44;;;;;;;;;;;;;;;23.82;66.29;97226.78;222820;260;98102;-53
2021/08/13 01:02:45;;;;;;;;;;;;;;;23.88;65.87;97218.50;222850;259;98470;-49
2021/08/13 01:03:47;;;;;;;;;;;;;;;24.01;65.71;97224.86;219699;263;98978;-50
2021/08/13 01:04:48;;;;;;;;;;;;;;;24.00;65.65;97222.67;220588;261;99132;-48
2021/08/13 01:05:49;;;;;;;;;;;;;;;24.08;65.47;97229.27;222833;260;98926;-53
2021/08/13 01:06:51;;;;;;;;;;;;;;;24.06;65.29;97224.08;222204;260;100321;-51
2021/08/13 01:07:52;;;;;;;;;;;;;;;24.06;65.41;97225.45;222270;261;99047;-50
2021/08/13 01:08:53;;;;;;;;;;;;;;;24.01;65.36;97224.86;221963;261;98010;-53
2021/08/13 01:09:55;;;;;;;;;;;;;;;23.90;65.51;97220.34;221924;261;98976;-50
2021/08/13 01:10:56;;;;;;;;;;;;;;;23.87;65.63;97221.05;221515;261;99087;-50
2021/08/13 01:11:57;;;;;;;;;;;;;;;23.78;65.83;97218.95;222538;261;98965;-50
2021/08/13 01:12:59;;;;;;;;;;;;;;;23.78;65.87;97221.72;221612;260;98945;-48
2021/08/13 01:14:00;;;;;;;;;;;;;;;23.90;65.65;97216.20;221617;262;99085;-53
2021/08/13 01:15:01;;;;;;;;;;;;;;;23.83;65.64;97211.25;222391;260;98919;-53
2021/08/13 01:16:03;;;;;;;;;;;;;;;23.88;65.47;97215.73;220438;262;100241;-48
2021/08/13 01:17:04;;;;;;;;;;;;;;;23.78;65.77;97218.95;220729;261;99377;-50
2021/08/13 01:18:06;;;;;;;;;;;;;;;23.73;65.89;97216.42;221736;261;98961;-48
2021/08/13 01:19:07;;;;;;;;;;;;;;;23.71;65.87;97220.89;222056;261;98950;-53
2021/08/13 01:20:08;;;;;;;;;;;;;;;23.68;65.95;97216.63;221651;261;97987;-54
2021/08/13 01:21:10;;;;;;;;;;;;;;;23.55;66.15;97220.72;220458;262;192717;-48
2021/08/13 01:22:11;;;;;;;;;;;;;;;23.53;66.27;97216.11;220833;262;97988;-50
2021/08/13 01:23:12;;;;;;;;;;;;;;;23.63;66.07;97215.70;221653;261;98786;-49
2021/08/13 01:24:14;;;;;;;;;;;;;;;23.64;66.00;97214.55;222347;261;98933;-52
2021/08/13 01:25:15;;;;;;;;;;;;;;;23.53;66.33;97209.77;221439;261;98961;-55
2021/08/13 01:26:16;;;;;;;;;;;;;;;23.59;66.21;97213.95;221586;261;97942;-49
2021/08/13 01:27:18;;;;;;;;;;;;;;;23.58;66.07;97206.22;221762;261;98009;-49
2021/08/13 01:28:19;;;;;;;;;;;;;;;23.59;66.06;97213.38;221637;262;98007;-50
2021/08/13 01:29:20;;;;;;;;;;;;;;;23.63;65.98;97210.17;221935;262;98014;-53
2021/08/13 01:30:22;;;;;;;;;;;;;;;23.61;65.94;97211.09;221743;262;98940;-52
2021/08/13 01:31:23;;;;;;;;;;;;;;;23.59;65.99;97214.75;222004;262;98863;-50
2021/08/13 01:32:25;;;;;;;;;;;;;;;23.52;66.18;97210.34;221459;262;97986;-50
2021/08/13 01:33:27;;;;;;;;;;;;;;;23.53;66.17;97208.38;221661;262;98933;-49
2021/08/13 01:34:28;;;;;;;;;;;;;;;23.44;66.24;97204.32;221340;261;195661;-51
2021/08/13 01:35:29;;;;;;;;;;;;;;;23.42;66.32;97209.39;221998;261;193927;-49
2021/08/13 01:36:31;;;;;;;;;;;;;;;23.52;66.18;97207.58;221838;262;100334;-47
2021/08/13 01:37:32;;;;;;;;;;;;;;;23.58;66.02;97211.75;221748;262;99621;-48
2021/08/13 01:38:34;;;;;;;;;;;;;;;23.50;66.10;97209.88;221957;262;98921;-52
2021/08/13 01:39:36;;;;;;;;;;;;;;;23.42;66.37;97210.77;221706;262;97541;-53
2021/08/13 01:40:37;;;;;;;;;;;;;;;23.37;66.48;97210.97;221968;262;98013;-51
2021/08/13 01:41:38;;;;;;;;;;;;;;;23.32;66.58;97206.48;221591;262;194568;-50
2021/08/13 01:42:40;;;;;;;;;;;;;;;23.42;66.41;97209.39;220526;262;192305;-52
2021/08/13 01:43:41;;;;;;;;;;;;;;;23.42;66.50;97209.39;221724;261;96983;-51
2021/08/13 01:44:42;;;;;;;;;;;;;;;23.51;66.33;97207.34;221567;261;98950;-51
2021/08/13 01:45:44;;;;;;;;;;;;;;;23.41;66.42;97209.16;222565;261;98019;-53
2021/08/13 01:46:45;;;;;;;;;;;;;;;23.45;66.30;97208.70;221659;261;98126;-50
2021/08/13 01:47:46;;;;;;;;;;;;;;;23.53;65.99;97205.04;222301;260;99006;-52
2021/08/13 01:48:48;;;;;;;;;;;;;;;23.50;66.09;97211.27;220954;262;98924;-48
2021/08/13 01:49:49;;;;;;;;;;;;;;;23.46;66.16;97208.93;222391;260;193326;-48
2021/08/13 01:50:50;;;;;;;;;;;;;;;23.45;66.19;97205.93;221624;261;98957;-49
2021/08/13 01:51:52;;;;;;;;;;;;;;;23.43;66.21;97202.70;222870;260;97958;-51
2021/08/13 01:52:53;;;;;;;;;;;;;;;23.36;66.39;97203.83;220507;262;98172;-51
2021/08/13 01:53:54;;;;;;;;;;;;;;;23.37;66.37;97202.67;220512;261;98941;-48
2021/08/13 01:54:56;;;;;;;;;;;;;;;23.35;66.38;97207.74;221817;261;98926;-50
2021/08/13 01:55:57;;;;;;;;;;;;;;;23.36;66.26;97202.45;221472;261;99038;-49
2021/08/13 01:56:58;;;;;;;;;;;;;;;23.38;66.23;97194.61;221800;260;98993;-46
2021/08/13 01:58:00;;;;;;;;;;;;;;;23.46;66.09;97203.39;221921;262;98929;-48
2021/08/13 01:59:01;;;;;;;;;;;;;;;23.40;66.27;97208.92;221768;260;97925;-50
2021/08/13 02:00:03;;;;;;;;;;;;;;;23.38;66.30;97208.44;221740;261;98933;-49
2021/08/13 02:01:04;;;;;;;;;;;;;;;23.52;65.95;97208.16;222520;260;98910;-46
2021/08/13 02:02:05;;;;;;;;;;;;;;;23.44;65.99;97204.32;222949;260;98998;-47
2021/08/13 02:03:07;;;;;;;;;;;;;;;23.46;65.98;97204.78;221860;261;98937;-51
2021/08/13 02:04:08;;;;;;;;;;;;;;;23.37;66.26;97204.05;221737;261;193349;-50
2021/08/13 02:05:09;;;;;;;;;;;;;;;23.24;66.50;97203.78;221888;260;98980;-50
2021/08/13 02:06:11;;;;;;;;;;;;;;;23.31;66.33;97204.05;221412;260;99461;-47
2021/08/13 02:07:12;;;;;;;;;;;;;;;23.33;66.29;97200.37;223136;260;98965;-50
2021/08/13 02:08:13;;;;;;;;;;;;;;;23.37;66.17;97204.86;221986;260;98957;-46
2021/08/13 02:09:15;;;;;;;;;;;;;;;23.42;66.01;97209.39;222181;261;98973;-47
2021/08/13 02:10:16;;;;;;;;;;;;;;;23.30;66.28;97209.36;221758;260;97989;-46
2021/08/13 02:11:18;;;;;;;;;;;;;;;23.28;66.38;97209.67;222092;261;193130;-45
2021/08/13 02:12:19;;;;;;;;;;;;;;;23.29;66.37;97207.74;222697;261;98077;-47
2021/08/13 02:13:20;;;;;;;;;;;;;;;23.30;66.29;97209.36;221800;261;98945;-45
2021/08/13 02:14:22;;;;;;;;;;;;;;;23.40;66.08;97215.03;223154;260;98937;-49
2021/08/13 02:15:23;;;;;;;;;;;;;;;23.31;66.22;97213.16;222121;260;97938;-48
2021/08/13 02:16:24;;;;;;;;;;;;;;;23.28;66.32;97210.25;221938;261;97976;-50
2021/08/13 02:17:29;;;;;;;;;;;;;;;23.24;66.42;97218.42;222862;260;98011;-47
2021/08/13 02:18:29;;;;;;;;;;;;;;;23.14;66.71;97213.89;221688;261;161103;-49
2021/08/13 02:19:31;;;;;;;;;;;;;;;23.14;66.68;97216.65;221836;262;97963;-47
2021/08/13 02:20:32;;;;;;;;;;;;;;;23.12;66.71;97213.42;222039;260;99329;-51
2021/08/13 02:21:33;;;;;;;;;;;;;;;23.17;66.56;97220.11;222876;260;98970;-48
2021/08/13 02:22:35;;;;;;;;;;;;;;;23.27;66.40;97212.78;221655;261;98937;-59
2021/08/13 02:23:36;;;;;;;;;;;;;;;23.12;66.92;97212.84;223163;260;99415;-52
2021/08/13 02:24:37;;;;;;;;;;;;;;;23.01;67.22;97216.59;221966;261;98971;-52
2021/08/13 02:25:39;;;;;;;;;;;;;;;22.91;67.40;97212.05;222647;260;194243;-48
2021/08/13 02:26:40;;;;;;;;;;;;;;;22.85;67.72;97221.11;221594;262;98927;-47
2021/08/13 02:27:41;;;;;;;;;;;;;;;22.78;67.94;97213.92;222785;260;97015;-48
2021/08/13 02:28:43;;;;;;;;;;;;;;;22.76;68.02;97210.69;221966;262;99478;-56
2021/08/13 02:29:44;;;;;;;;;;;;;;;22.79;68.06;97208.62;221879;260;98957;-47
2021/08/13 02:30:45;;;;;;;;;;;;;;;22.83;67.91;97209.55;220806;261;98966;-53
2021/08/13 02:31:47;;;;;;;;;;;;;;;22.73;68.01;97210.77;221542;261;98937;-50
2021/08/13 02:32:48;;;;;;;;;;;;;;;22.70;68.13;97209.26;222702;260;98961;-50
2021/08/13 02:33:49;;;;;;;;;;;;;;;22.69;68.17;97213.17;222540;261;99018;-48
2021/08/13 02:34:51;;;;;;;;;;;;;;;22.70;68.27;97216.16;222608;260;98937;-47
2021/08/13 02:35:52;;;;;;;;;;;;;;;22.70;68.31;97214.20;222067;261;98966;-48
2021/08/13 02:36:53;;;;;;;;;;;;;;;22.70;68.30;97211.45;221934;261;98943;-49
2021/08/13 02:37:55;;;;;;;;;;;;;;;22.72;68.20;97221.58;222135;261;98936;-47
2021/08/13 02:38:56;;;;;;;;;;;;;;;22.69;68.20;97217.31;222003;260;98889;-50
2021/08/13 02:39:57;;;;;;;;;;;;;;;22.69;68.35;97220.88;221589;261;98781;-49
2021/08/13 02:40:59;;;;;;;;;;;;;;;22.74;68.20;97217.91;222176;261;98950;-48
2021/08/13 02:42:00;;;;;;;;;;;;;;;22.69;68.23;97214.55;221959;261;99062;-48
2021/08/13 02:43:01;;;;;;;;;;;;;;;22.73;68.19;97210.77;222159;261;98969;-53
2021/08/13 02:44:03;;;;;;;;;;;;;;;22.69;68.31;97211.78;221837;261;98984;-47
2021/08/13 02:45:04;;;;;;;;;;;;;;;22.73;68.23;97213.53;222063;261;99066;-48
2021/08/13 02:46:05;;;;;;;;;;;;;;;22.72;68.17;97210.53;221923;261;98951;-48
2021/08/13 02:47:07;;;;;;;;;;;;;;;22.72;68.18;97208.34;221807;261;100223;-47
2021/08/13 02:48:08;;;;;;;;;;;;;;;22.70;68.23;97210.64;222290;260;97971;-47
2021/08/13 02:49:09;;;;;;;;;;;;;;;22.69;68.30;97207.64;220802;263;98961;-48
2021/08/13 02:50:11;;;;;;;;;;;;;;;22.78;68.12;97210.58;222255;260;98932;-47
2021/08/13 02:51:12;;;;;;;;;;;;;;;22.60;69.02;97209.66;221936;261;99046;-47
2021/08/13 02:52:13;;;;;;;;;;;;;;;22.66;68.49;97211.09;222174;261;99016;-48
2021/08/13 02:53:16;;;;;;;;;;;;;;;22.56;68.89;97204.00;221927;261;98944;-47
2021/08/13 02:54:18;;;;;;;;;;;;;;;22.74;68.56;97208.81;221704;261;194138;-49
2021/08/13 02:55:19;;;;;;;;;;;;;;;22.77;68.34;97212.30;222292;261;98831;-47
2021/08/13 02:56:21;;;;;;;;;;;;;;;22.75;68.40;97208.47;222346;261;98929;-51
2021/08/13 02:57:22;;;;;;;;;;;;;;;22.77;68.23;97216.45;222385;261;99051;-47
2021/08/13 02:58:23;;;;;;;;;;;;;;;22.79;68.17;97210.00;222037;261;98604;-49
2021/08/13 02:59:25;;;;;;;;;;;;;;;22.83;68.10;97212.89;221265;262;98017;-48
2021/08/13 03:00:26;;;;;;;;;;;;;;;22.84;68.09;97213.16;222994;260;98111;-52
2021/08/13 03:01:27;;;;;;;;;;;;;;;22.86;67.87;97217.19;221543;260;192379;-47
2021/08/13 03:02:29;;;;;;;;;;;;;;;22.83;67.93;97212.31;221961;261;98939;-48
2021/08/13 03:03:30;;;;;;;;;;;;;;;22.81;67.96;97210.47;220647;262;98861;-47
2021/08/13 03:04:31;;;;;;;;;;;;;;;22.84;67.94;97216.73;221508;261;98956;-47
2021/08/13 03:05:33;;;;;;;;;;;;;;;22.77;68.32;97220.02;222186;260;99088;-47
2021/08/13 03:06:35;;;;;;;;;;;;;;;22.83;68.13;97220.61;222717;261;99206;-47
2021/08/13 03:07:37;;;;;;;;;;;;;;;22.88;67.96;97218.27;221909;261;195494;-47
2021/08/13 03:08:38;;;;;;;;;;;;;;;22.81;67.91;97218.19;222218;260;194317;-47
2021/08/13 03:09:39;;;;;;;;;;;;;;;22.87;67.76;97219.41;221830;261;98933;-50
2021/08/13 03:10:41;;;;;;;;;;;;;;;22.86;67.82;97220.53;222095;260;98933;-48
2021/08/13 03:11:42;;;;;;;;;;;;;;;23.17;67.73;97221.49;223458;260;98685;-61
2021/08/13 03:12:43;;;;;;;;;;;;;;;23.23;66.96;97229.25;222194;260;98926;-45
2021/08/13 03:13:45;;;;;;;;;;;;;;;23.20;66.97;97224.98;221038;262;98939;-48
2021/08/13 03:14:46;;;;;;;;;;;;;;;23.26;66.85;97223.61;221772;261;98839;-45
2021/08/13 03:15:47;;;;;;;;;;;;;;;23.21;66.83;97225.22;221093;261;98924;-46
2021/08/13 03:16:49;;;;;;;;;;;;;;;23.30;66.85;97217.66;222537;260;97990;-46
2021/08/13 03:17:50;;;;;;;;;;;;;;;23.28;66.55;97213.81;222409;261;98953;-45
2021/08/13 03:18:51;;;;;;;;;;;;;;;23.22;66.64;97219.92;222423;261;100608;-45
2021/08/13 03:19:53;;;;;;;;;;;;;;;23.21;66.76;97220.49;221022;262;97651;-45
2021/08/13 03:20:54;;;;;;;;;;;;;;;23.20;66.70;97221.64;221883;261;98014;-45
2021/08/13 03:21:55;;;;;;;;;;;;;;;23.24;66.74;97221.77;220976;262;97988;-48
2021/08/13 03:22:57;;;;;;;;;;;;;;;23.14;66.72;97223.56;221244;260;192305;-46
2021/08/13 03:23:58;;;;;;;;;;;;;;;23.08;66.97;97219.64;222231;261;99005;-46
2021/08/13 03:25:00;;;;;;;;;;;;;;;23.11;66.97;97219.53;222316;261;98929;-46
2021/08/13 03:26:01;;;;;;;;;;;;;;;23.19;66.74;97218.65;222673;261;98333;-45
2021/08/13 03:27:02;;;;;;;;;;;;;;;23.34;66.50;97215.81;221882;261;97956;-46
2021/08/13 03:28:04;;;;;;;;;;;;;;;23.23;66.58;97228.44;222091;261;98014;-46
2021/08/13 03:29:05;;;;;;;;;;;;;;;23.22;66.52;97228.22;221999;261;98023;-46
2021/08/13 03:30:06;;;;;;;;;;;;;;;23.17;66.69;97225.06;222379;261;97354;-47
2021/08/13 03:31:08;;;;;;;;;;;;;;;23.07;66.88;97231.01;222574;260;98944;-45
2021/08/13 03:32:09;;;;;;;;;;;;;;;23.13;66.75;97233.81;221953;261;98014;-46
2021/08/13 03:33:10;;;;;;;;;;;;;;;23.14;66.80;97223.56;222113;261;97907;-45
2021/08/13 03:34:12;;;;;;;;;;;;;;;23.06;67.00;97229.39;221834;261;98036;-45
2021/08/13 03:35:13;;;;;;;;;;;;;;;22.99;67.08;97228.57;222014;261;97620;-49
2021/08/13 03:36:14;;;;;;;;;;;;;;;23.03;67.15;97225.93;221925;261;98988;-44
2021/08/13 03:37:16;;;;;;;;;;;;;;;22.98;67.09;97221.43;221783;261;98941;-47
2021/08/13 03:38:17;;;;;;;;;;;;;;;23.11;66.86;97227.82;222173;261;98925;-46
2021/08/13 03:39:18;;;;;;;;;;;;;;;23.09;66.80;97226.78;221911;261;97995;-45
2021/08/13 03:40:20;;;;;;;;;;;;;;;23.03;66.83;97228.13;222156;261;98010;-46
2021/08/13 03:41:21;;;;;;;;;;;;;;;22.95;67.11;97230.38;221905;261;97623;-50
2021/08/13 03:42:22;;;;;;;;;;;;;;;23.06;66.89;97228.81;222294;261;97055;-47
2021/08/13 03:43:24;;;;;;;;;;;;;;;22.98;67.06;97226.95;221263;262;99001;-46
2021/08/13 03:44:25;;;;;;;;;;;;;;;22.94;67.09;97220.47;222831;260;98949;-47
2021/08/13 03:45:26;;;;;;;;;;;;;;;23.05;66.94;97222.25;222197;260;98937;-46
2021/08/13 03:46:28;;;;;;;;;;;;;;;22.99;66.89;97227.19;222223;261;98008;-46
2021/08/13 03:47:29;;;;;;;;;;;;;;;22.94;67.04;97219.66;223512;260;99152;-45
2021/08/13 03:48:31;;;;;;;;;;;;;;;22.98;67.00;97224.20;222015;261;98965;-48
2021/08/13 03:49:32;;;;;;;;;;;;;;;22.97;66.94;97222.58;223092;260;98950;-48
2021/08/13 03:50:33;;;;;;;;;;;;;;;22.87;67.14;97224.37;221717;262;98961;-46
2021/08/13 03:51:35;;;;;;;;;;;;;;;22.99;66.98;97217.52;222718;260;195457;-46
2021/08/13 03:52:36;;;;;;;;;;;;;;;23.04;66.82;97226.97;221878;262;98172;-45
2021/08/13 03:53:37;;;;;;;;;;;;;;;23.05;66.96;97224.44;221955;260;98940;-46
2021/08/13 03:54:39;;;;;;;;;;;;;;;22.99;67.06;97218.90;221105;262;99004;-46
2021/08/13 03:55:40;;;;;;;;;;;;;;;23.05;66.96;97223.06;221595;261;98972;-48
2021/08/13 03:56:41;;;;;;;;;;;;;;;23.10;66.74;97216.53;222508;260;98969;-46
2021/08/13 03:57:43;;;;;;;;;;;;;;;23.09;66.77;97214.91;222512;261;98955;-46
2021/08/13 03:58:44;;;;;;;;;;;;;;;23.07;66.72;97213.88;222260;261;98007;-47
2021/08/13 03:59:45;;;;;;;;;;;;;;;23.06;66.73;97213.61;221909;260;97985;-45
2021/08/13 04:00:47;;;;;;;;;;;;;;;23.00;67.00;97209.45;221281;261;99428;-45
2021/08/13 04:01:48;;;;;;;;;;;;;;;23.00;67.03;97216.94;222267;260;98971;-47
2021/08/13 04:02:49;;;;;;;;;;;;;;;22.93;67.11;97211.94;221555;262;98997;-45
2021/08/13 04:03:51;;;;;;;;;;;;;;;23.02;66.88;97208.53;221964;262;98957;-45
2021/08/13 04:04:52;;;;;;;;;;;;;;;22.94;67.04;97208.61;220555;262;98033;-50
2021/08/13 04:05:53;;;;;;;;;;;;;;;22.99;67.22;97208.41;221140;261;99127;-50
2021/08/13 04:06:55;;;;;;;;;;;;;;;22.90;67.26;97212.63;222610;260;98015;-49
2021/08/13 04:07:56;;;;;;;;;;;;;;;22.77;67.50;97208.96;221445;260;99461;-50
2021/08/13 04:08:57;;;;;;;;;;;;;;;22.72;67.66;97208.34;222546;261;98945;-48
2021/08/13 04:09:59;;;;;;;;;;;;;;;22.65;67.91;97214.97;223489;260;98974;-48
2021/08/13 04:11:00;;;;;;;;;;;;;;;22.65;67.97;97207.52;222396;261;98045;-47
2021/08/13 04:12:01;;;;;;;;;;;;;;;22.64;67.99;97217.49;223343;260;97995;-48
2021/08/13 04:13:03;;;;;;;;;;;;;;;22.71;67.83;97217.78;221870;261;98015;-47
2021/08/13 04:14:04;;;;;;;;;;;;;;;22.64;67.97;97213.34;223021;260;97081;-49
2021/08/13 04:15:05;;;;;;;;;;;;;;;22.71;67.87;97215.83;221635;261;98946;-46
2021/08/13 04:16:07;;;;;;;;;;;;;;;22.70;67.82;97218.93;223573;260;98944;-48
2021/08/13 04:17:08;;;;;;;;;;;;;;;22.70;67.93;97221.69;222163;261;97993;-48
2021/08/13 04:18:09;;;;;;;;;;;;;;;22.72;67.77;97219.39;222932;260;97991;-51
2021/08/13 04:19:11;;;;;;;;;;;;;;;22.74;67.79;97217.09;221734;262;98085;-48
2021/08/13 04:20:12;;;;;;;;;;;;;;;22.71;67.74;97224.69;222990;260;97076;-49
2021/08/13 04:21:13;;;;;;;;;;;;;;;22.71;67.83;97226.07;222365;261;98938;-48
2021/08/13 04:22:15;;;;;;;;;;;;;;;22.70;67.90;97226.64;222630;260;98950;-49
2021/08/13 04:23:16;;;;;;;;;;;;;;;22.71;67.79;97230.22;220611;263;98004;-48
2021/08/13 04:24:17;;;;;;;;;;;;;;;22.63;68.05;97228.31;220764;263;97985;-47
2021/08/13 04:25:19;;;;;;;;;;;;;;;22.66;67.91;97227.66;221847;261;98816;-49
2021/08/13 04:26:20;;;;;;;;;;;;;;;22.69;67.83;97225.60;221758;261;99012;-50
2021/08/13 04:27:21;;;;;;;;;;;;;;;22.72;67.82;97230.45;221736;261;98867;-47
2021/08/13 04:28:23;;;;;;;;;;;;;;;22.71;67.83;97228.83;222290;260;98979;-48
2021/08/13 04:29:24;;;;;;;;;;;;;;;22.80;68.17;97221.30;222145;261;97990;-47
2021/08/13 04:30:25;;;;;;;;;;;;;;;22.81;69.89;97225.67;222134;261;97983;-48
2021/08/13 04:31:27;;;;;;;;;;;;;;;22.78;67.73;97226.35;222181;260;98007;-48
2021/08/13 04:32:28;;;;;;;;;;;;;;;22.67;68.16;97225.94;222186;261;99005;-47
2021/08/13 04:33:29;;;;;;;;;;;;;;;22.74;67.95;97233.67;221906;261;98945;-48
2021/08/13 04:34:31;;;;;;;;;;;;;;;22.76;67.76;97226.70;221651;261;98933;-50
2021/08/13 04:35:32;;;;;;;;;;;;;;;22.69;68.17;97233.89;222202;260;98973;-47
2021/08/13 04:36:33;;;;;;;;;;;;;;;22.78;67.83;97226.35;221872;261;97982;-51
2021/08/13 04:37:35;;;;;;;;;;;;;;;22.84;67.43;97229.73;222053;261;97924;-64
2021/08/13 04:38:36;;;;;;;;;;;;;;;23.03;67.20;97228.70;221928;261;99584;-49
2021/08/13 04:39:37;;;;;;;;;;;;;;;22.99;67.12;97225.81;222291;260;98941;-48
2021/08/13 04:40:39;;;;;;;;;;;;;;;22.99;66.97;97223.05;223370;260;98937;-49
2021/08/13 04:41:40;;;;;;;;;;;;;;;22.90;67.22;97220.11;222572;260;98973;-48
2021/08/13 04:42:41;;;;;;;;;;;;;;;22.88;67.34;97221.03;221946;262;98942;-49
2021/08/13 04:43:43;;;;;;;;;;;;;;;22.89;67.39;97228.17;222831;260;98000;-47
2021/08/13 04:44:44;;;;;;;;;;;;;;;22.85;67.46;97224.45;222290;261;97122;-49
2021/08/13 04:45:45;;;;;;;;;;;;;;;22.92;68.91;97228.88;222710;260;98949;-50
2021/08/13 04:46:47;;;;;;;;;;;;;;;22.86;67.26;97224.68;221505;261;98985;-49
2021/08/13 04:47:48;;;;;;;;;;;;;;;22.87;67.27;97223.56;221844;260;98974;-47
2021/08/13 04:48:49;;;;;;;;;;;;;;;22.87;67.30;97226.33;220777;262;98949;-48
2021/08/13 04:49:51;;;;;;;;;;;;;;;22.91;67.26;97228.06;221502;260;98936;-50
2021/08/13 04:50:52;;;;;;;;;;;;;;;22.87;67.19;97228.52;220648;261;98078;-48
2021/08/13 04:51:53;;;;;;;;;;;;;;;22.86;67.37;97229.63;221753;260;98944;-50
2021/08/13 04:52:55;;;;;;;;;;;;;;;22.88;67.25;97220.45;222491;260;98936;-47
2021/08/13 04:53:56;;;;;;;;;;;;;;;22.88;67.35;97225.98;221887;260;98998;-49
2021/08/13 04:54:57;;;;;;;;;;;;;;;22.87;67.27;97231.28;220675;262;98937;-48
2021/08/13 04:55:59;;;;;;;;;;;;;;;22.91;67.21;97231.40;221493;260;98938;-47
2021/08/13 04:57:00;;;;;;;;;;;;;;;22.91;67.21;97230.83;222400;260;98965;-49
2021/08/13 04:58:02;;;;;;;;;;;;;;;22.91;67.18;97229.44;222041;260;98997;-49
2021/08/13 04:59:03;;;;;;;;;;;;;;;22.93;67.59;97224.38;222236;260;100250;-46
2021/08/13 05:00:04;;;;;;;;;;;;;;;22.95;67.26;97228.99;222542;260;98853;-51
2021/08/13 05:01:05;;;;;;;;;;;;;;;22.92;67.20;97225.53;222046;261;98972;-48
2021/08/13 05:02:07;;;;;;;;;;;;;;;22.93;67.18;97226.34;221943;261;97974;-47
2021/08/13 05:03:08;;;;;;;;;;;;;;;22.93;67.11;97220.23;221974;260;193217;-46
2021/08/13 05:04:11;;;;;;;;;;;;;;;22.98;67.26;97225.58;222300;260;98988;-61
2021/08/13 05:05:12;;;;;;;;;;;;;;;23.07;67.29;97226.31;221380;261;97980;-49
2021/08/13 05:06:13;;;;;;;;;;;;;;;23.06;67.12;97221.09;222556;261;97978;-50
2021/08/13 05:07:15;;;;;;;;;;;;;;;23.00;66.96;97217.75;221581;261;98529;-47
2021/08/13 05:08:16;;;;;;;;;;;;;;;22.97;67.01;97223.96;221917;261;100357;-48
2021/08/13 05:09:17;;;;;;;;;;;;;;;22.86;67.80;97220.53;220727;263;194775;-48
2021/08/13 05:10:19;;;;;;;;;;;;;;;23.07;66.98;97229.08;221435;261;193671;-48
2021/08/13 05:11:20;;;;;;;;;;;;;;;23.05;66.94;97228.59;222695;260;98990;-50
2021/08/13 05:12:21;;;;;;;;;;;;;;;23.22;66.59;97229.59;222417;261;97980;-50
2021/08/13 05:13:23;;;;;;;;;;;;;;;23.17;66.41;97232.55;222660;261;98014;-45
2021/08/13 05:14:24;;;;;;;;;;;;;;;23.21;66.28;97232.94;222543;261;98015;-46
2021/08/13 05:15:25;;;;;;;;;;;;;;;23.27;66.37;97237.67;222316;261;98963;-46
2021/08/13 05:16:27;;;;;;;;;;;;;;;23.31;66.07;97238.05;222660;260;98960;-45
2021/08/13 05:17:28;;;;;;;;;;;;;;;23.33;66.03;97241.85;220920;262;98946;-45
2021/08/13 05:18:29;;;;;;;;;;;;;;;23.32;66.10;97233.33;221358;261;99430;-45